Time;durP1;ratioP1;P1;durP2;ratioP2;P2;SDS_P1;SDS_P2;PMS_P1;PMS_P2;Temp;Humidity;BMP_temperature;BMP_pressure;BME280_temperature;BME280_humidity;BME280_pressure;Samples;Min_cycle;Max_cycle;Signal;HPM_P1;HPM_P2
2021/01/14 00:00:18;;;;;;;8.90;6.10;;;;;;;-0.43;77.80;95221.51;1774226;79;21406;-77
2021/01/14 00:02:46;;;;;;;6.60;5.42;;;;;;;-0.42;77.79;95219.28;1778911;79;21111;-77
2021/01/14 00:05:13;;;;;;;7.40;5.55;;;;;;;-0.41;77.74;95220.41;1774774;79;21118;-77
2021/01/14 00:07:39;;;;;;;9.20;7.28;;;;;;;-0.37;77.73;95214.55;1775918;79;21133;-77
2021/01/14 00:10:07;;;;;;;10.68;6.70;;;;;;;-0.35;77.67;95216.00;1749636;79;21110;-77
2021/01/14 00:12:33;;;;;;;8.10;6.03;;;;;;;-0.32;77.66;95215.74;1782028;79;21113;-79
2021/01/14 00:14:59;;;;;;;6.45;5.50;;;;;;;-0.33;77.37;95206.92;1776890;79;21154;-78
2021/01/14 00:17:25;;;;;;;6.92;5.08;;;;;;;-0.35;77.14;95201.16;1752688;79;21119;-77
2021/01/14 00:19:51;;;;;;;6.08;4.45;;;;;;;-0.40;76.94;95199.52;1774319;79;21104;-77
2021/01/14 00:22:17;;;;;;;5.42;4.92;;;;;;;-0.47;76.85;95199.30;1776304;79;21123;-78
2021/01/14 00:24:43;;;;;;;7.50;5.65;;;;;;;-0.47;77.08;95204.88;1782181;79;21433;-78
2021/01/14 00:27:10;;;;;;;7.20;5.40;;;;;;;-0.47;77.24;95198.03;1783265;79;21310;-77
2021/01/14 00:29:36;;;;;;;8.15;5.35;;;;;;;-0.47;77.41;95201.05;1792880;78;21241;-78
2021/01/14 00:32:04;;;;;;;8.83;5.12;;;;;;;-0.46;77.20;95194.53;1791377;78;21086;-77
2021/01/14 00:34:31;;;;;;;7.70;5.90;;;;;;;-0.46;77.20;95191.17;1791753;79;21375;-77
2021/01/14 00:39:41;;;;;;;8.05;5.22;;;;;;;-0.48;77.32;95176.48;1790181;78;21233;-78
2021/01/14 00:42:07;;;;;;;10.80;6.40;;;;;;;-0.46;77.38;95177.94;1791686;80;21135;-78
2021/01/14 00:44:34;;;;;;;6.03;4.70;;;;;;;-0.44;77.40;95176.05;1791500;78;21232;-77
2021/01/14 00:47:00;;;;;;;7.20;4.65;;;;;;;-0.46;77.03;95170.28;1792197;78;21134;-78
2021/01/14 00:49:26;;;;;;;6.33;5.00;;;;;;;-0.49;76.97;95165.47;1791840;78;21119;-78
2021/01/14 00:51:52;;;;;;;6.70;4.67;;;;;;;-0.51;76.98;95160.95;1791487;78;21125;-78
2021/01/14 00:54:18;;;;;;;7.12;4.83;;;;;;;-0.51;77.28;95153.78;1793328;80;21115;-78
2021/01/14 00:56:44;;;;;;;6.25;4.95;;;;;;;-0.48;77.35;95165.80;1793122;78;21129;-77
2021/01/14 00:59:10;;;;;;;6.00;5.08;;;;;;;-0.44;77.35;95159.93;1792456;78;21115;-78
2021/01/14 01:01:40;;;;;;;8.25;5.83;;;;;;;-0.42;77.30;95163.14;1791530;78;21898;-78
2021/01/14 01:04:07;;;;;;;8.00;6.20;;;;;;;-0.42;77.31;95151.66;1791744;78;21334;-77
2021/01/14 01:06:38;;;;;;;7.30;5.72;;;;;;;-0.45;77.38;95151.95;1789733;78;21074;-77
2021/01/14 01:09:06;;;;;;;6.92;5.75;;;;;;;-0.46;77.52;95150.34;1790415;78;21452;-78
2021/01/14 01:11:32;;;;;;;9.90;7.05;;;;;;;-0.46;77.58;95149.07;1790615;80;21133;-77
2021/01/14 01:13:58;;;;;;;7.35;6.60;;;;;;;-0.43;77.79;95148.77;1791481;78;21115;-78
2021/01/14 01:16:25;;;;;;;10.58;5.50;;;;;;;-0.41;77.82;95149.42;1790797;80;21253;-78
2021/01/14 01:18:51;;;;;;;5.58;4.95;;;;;;;-0.38;77.88;95145.31;1788580;78;21135;-78
2021/01/14 01:21:17;;;;;;;6.33;4.72;;;;;;;-0.40;77.85;95148.48;1789058;78;21217;-78
2021/01/14 01:23:43;;;;;;;6.45;5.30;;;;;;;-0.42;77.89;95141.45;1791306;78;21804;-77
2021/01/14 01:26:15;;;;;;;6.97;4.95;;;;;;;-0.46;77.76;95137.59;1790429;78;21122;-79
2021/01/14 01:28:42;;;;;;;6.25;4.58;;;;;;;-0.46;77.92;95136.31;1789083;78;21123;-79
2021/01/14 01:31:10;;;;;;;6.03;5.08;;;;;;;-0.45;77.86;95133.61;1788865;78;21471;-79
2021/01/14 01:33:36;;;;;;;4.80;4.40;;;;;;;-0.46;77.97;95133.28;1791153;78;21147;-79
2021/01/14 01:36:03;;;;;;;6.33;4.50;;;;;;;-0.47;78.00;95132.95;1789483;78;21284;-79
2021/01/14 01:38:29;;;;;;;6.08;4.75;;;;;;;-0.46;78.18;95127.38;1788167;79;21145;-80
2021/01/14 01:40:56;;;;;;;8.10;5.60;;;;;;;-0.45;78.11;95124.67;1789680;80;21134;-80
2021/01/14 01:43:23;;;;;;;8.28;5.70;;;;;;;-0.42;78.18;95124.86;1789467;78;21105;-79
2021/01/14 01:45:49;;;;;;;6.95;5.22;;;;;;;-0.38;78.33;95114.68;1790470;78;21341;-79
2021/01/14 01:48:18;;;;;;;8.28;5.55;;;;;;;-0.39;78.31;95112.60;1787792;80;21978;-79
2021/01/14 01:50:45;;;;;;;6.22;5.22;;;;;;;-0.41;78.12;95114.98;1791572;78;21099;-79
2021/01/14 01:53:11;;;;;;;6.80;4.78;;;;;;;-0.44;78.34;95114.80;1790433;78;21294;-79
2021/01/14 01:55:38;;;;;;;5.35;4.37;;;;;;;-0.46;78.18;95109.52;1789149;78;21095;-79
2021/01/14 01:58:05;;;;;;;4.50;4.10;;;;;;;-0.51;78.11;95112.95;1787647;78;21155;-79
2021/01/14 02:00:32;;;;;;;7.55;5.72;;;;;;;-0.53;78.28;95109.75;1789377;79;21348;-79
2021/01/14 02:02:58;;;;;;;6.15;4.53;;;;;;;-0.57;78.41;95114.34;1790371;78;21383;-79
2021/01/14 02:05:25;;;;;;;5.37;4.55;;;;;;;-0.55;78.54;95114.20;1792621;78;21107;-79
2021/01/14 02:08:28;;;;;;;11.85;7.47;;;;;;;-0.59;78.53;95113.69;1790355;78;21091;-79
2021/01/14 02:11:01;;;;;;;64.37;26.10;;;;;;;-0.58;78.65;95106.84;1791806;78;21135;-79
2021/01/14 02:14:02;;;;;;;75.97;34.03;;;;;;;-0.55;78.82;95103.52;1788870;78;21145;-80
2021/01/14 02:16:28;;;;;;;16.27;8.73;;;;;;;-0.51;78.84;95106.09;1791040;79;21122;-79
2021/01/14 02:18:55;;;;;;;7.85;5.85;;;;;;;-0.48;78.84;95104.56;1786274;78;21126;-80
2021/01/14 02:21:21;;;;;;;6.83;5.67;;;;;;;-0.45;78.80;95105.54;1786562;78;21794;-79
2021/01/14 02:24:20;;;;;;;4.10;3.70;;;;;;;-0.40;78.94;95103.81;1760629;80;21337;-79
2021/01/14 02:26:47;;;;;;;4.17;3.77;;;;;;;-0.45;78.86;95104.27;1727175;78;21122;-79
2021/01/14 02:29:13;;;;;;;6.00;5.40;;;;;;;-0.53;78.76;95103.38;1789059;79;21118;-79
2021/01/14 02:31:39;;;;;;;4.75;4.08;;;;;;;-0.57;78.89;95109.23;1789287;78;21114;-79
2021/01/14 02:34:05;;;;;;;6.03;5.40;;;;;;;-0.58;78.86;95101.27;1735299;80;21273;-79
2021/01/14 02:36:31;;;;;;;5.55;4.42;;;;;;;-0.58;78.97;95097.91;1789241;80;21126;-79
2021/01/14 02:38:57;;;;;;;4.87;4.37;;;;;;;-0.58;79.07;95096.16;1788929;78;21309;-79
2021/01/14 02:41:23;;;;;;;6.15;5.15;;;;;;;-0.55;79.12;95097.61;1790280;78;21143;-79
2021/01/14 02:43:50;;;;;;;7.10;5.55;;;;;;;-0.56;79.25;95101.91;1787547;79;21157;-80
2021/01/14 02:46:17;;;;;;;8.45;6.53;;;;;;;-0.56;79.29;95100.64;1789807;78;21127;-79
2021/01/14 02:49:03;;;;;;;7.28;5.45;;;;;;;-0.57;79.33;95102.06;1788733;78;21886;-80
2021/01/14 02:51:49;;;;;;;7.20;5.53;;;;;;;-0.61;79.48;95082.42;1789200;78;21171;-80
2021/01/14 02:54:15;;;;;;;6.10;5.05;;;;;;;-0.56;79.62;95093.46;1788322;78;21138;-80
2021/01/14 02:56:42;;;;;;;6.00;5.45;;;;;;;-0.51;79.76;95095.09;1787395;78;21131;-80
2021/01/14 03:01:44;;;;;;;5.70;4.95;;;;;;;-0.43;79.82;95087.53;1794501;78;23001;-81
2021/01/14 03:04:10;;;;;;;5.40;4.90;;;;;;;-0.46;79.86;95095.00;1774460;79;21309;-81
2021/01/14 03:06:36;;;;;;;5.47;4.95;;;;;;;-0.49;79.86;95093.19;1771232;79;21086;-81
2021/01/14 03:09:04;;;;;;;6.00;4.72;;;;;;;-0.50;79.90;95091.12;1767846;79;21126;-81
2021/01/14 03:11:32;;;;;;;7.00;6.30;;;;;;;-0.46;79.93;95092.92;1763323;79;21248;-81
2021/01/14 03:13:59;;;;;;;5.37;4.87;;;;;;;-0.46;79.92;95089.91;1771622;79;21630;-81
2021/01/14 03:16:25;;;;;;;4.30;3.60;;;;;;;-0.50;79.90;95091.59;1769960;79;21313;-81
2021/01/14 03:18:52;;;;;;;4.53;3.90;;;;;;;-0.53;79.83;95091.89;1774199;79;21145;-82
2021/01/14 03:21:22;;;;;;;5.50;4.10;;;;;;;-0.56;79.86;95091.70;1773851;79;21895;-81
2021/01/14 03:23:48;;;;;;;4.53;3.45;;;;;;;-0.59;79.95;95091.20;1764536;79;21082;-81
2021/01/14 03:26:15;;;;;;;4.60;4.00;;;;;;;-0.57;80.14;95088.03;1772550;79;21079;-81
2021/01/14 03:28:41;;;;;;;4.97;4.47;;;;;;;-0.55;80.16;95093.78;1746027;79;21116;-81
2021/01/14 03:31:09;;;;;;;4.33;3.47;;;;;;;-0.52;80.23;95093.02;1768806;79;21359;-82
2021/01/14 03:33:35;;;;;;;3.70;3.40;;;;;;;-0.54;80.18;95089.81;1729096;81;21962;-81
2021/01/14 03:36:05;;;;;;;4.12;3.67;;;;;;;-0.68;79.94;95089.83;1715838;82;21123;-81
2021/01/14 03:38:38;;;;;;;3.90;3.45;;;;;;;-0.72;80.27;95086.45;1706273;82;21437;-81
2021/01/14 03:41:15;;;;;;;4.62;4.22;;;;;;;-0.71;80.38;95091.40;1713849;82;21130;-82
2021/01/14 03:43:41;;;;;;;4.53;4.12;;;;;;;-0.75;80.48;95091.37;1739163;81;21145;-81
2021/01/14 03:46:09;;;;;;;5.05;3.92;;;;;;;-0.77;80.70;95086.88;1744802;81;21251;-81
2021/01/14 03:48:38;;;;;;;6.67;4.30;;;;;;;-0.77;80.67;95091.19;1740668;81;21463;-81
2021/01/14 03:51:19;;;;;;;4.15;3.47;;;;;;;-0.80;80.82;95090.20;1745499;81;21125;-80
2021/01/14 03:53:50;;;;;;;5.85;5.12;;;;;;;-0.85;80.96;95085.51;1743595;81;21489;-80
2021/01/14 03:56:17;;;;;;;4.40;3.98;;;;;;;-0.89;80.98;95089.30;1742859;81;21259;-80
2021/01/14 03:58:43;;;;;;;5.50;4.83;;;;;;;-0.88;81.05;95089.62;1737634;81;21297;-81
2021/01/14 04:01:10;;;;;;;4.95;4.45;;;;;;;-0.87;81.08;95092.50;1698910;82;21463;-80
2021/01/14 04:03:41;;;;;;;5.47;4.47;;;;;;;-0.85;81.22;95095.71;1711112;82;21073;-81
2021/01/14 04:06:08;;;;;;;5.33;4.83;;;;;;;-0.85;81.05;95096.98;1713268;82;21490;-80
2021/01/14 04:08:35;;;;;;;5.08;4.58;;;;;;;-0.86;81.09;95091.55;1708760;82;21120;-80
2021/01/14 04:11:03;;;;;;;6.15;5.60;;;;;;;-0.81;81.28;95095.78;1708563;82;21356;-81
2021/01/14 04:13:30;;;;;;;6.22;5.62;;;;;;;-0.76;81.27;95097.41;1712996;82;21126;-82
2021/01/14 04:15:57;;;;;;;6.67;5.58;;;;;;;-0.72;81.25;95103.02;1718172;82;21150;-80
2021/01/14 04:18:23;;;;;;;4.55;4.25;;;;;;;-0.71;81.27;95102.08;1713817;82;21549;-80
2021/01/14 04:20:49;;;;;;;5.00;4.60;;;;;;;-0.74;81.18;95096.80;1712684;82;21154;-80
2021/01/14 04:23:16;;;;;;;4.95;4.30;;;;;;;-0.77;81.15;95100.91;1710525;82;21257;-80
2021/01/14 04:25:43;;;;;;;4.60;4.20;;;;;;;-0.81;81.20;95097.53;1708810;82;21344;-80
2021/01/14 04:28:09;;;;;;;5.00;4.50;;;;;;;-0.85;81.18;95098.27;1712595;82;21571;-80
2021/01/14 04:30:35;;;;;;;4.92;4.42;;;;;;;-0.83;81.32;95100.19;1707329;82;21140;-80
2021/01/14 04:33:11;;;;;;;5.12;4.62;;;;;;;-0.83;81.31;95099.39;1714906;82;21256;-80
2021/01/14 04:35:54;;;;;;;4.60;4.20;;;;;;;-0.86;81.29;95094.11;1703180;83;21122;-80
2021/01/14 04:38:21;;;;;;;9.60;8.70;;;;;;;-0.87;81.25;95100.63;1700291;83;21379;-80
2021/01/14 04:40:59;;;;;;;6.10;5.50;;;;;;;-0.91;81.30;95109.05;1703781;83;21312;-80
2021/01/14 04:43:27;;;;;;;5.17;4.67;;;;;;;-0.91;81.43;95106.02;1700739;83;21613;-80
2021/01/14 04:46:03;;;;;;;6.42;5.22;;;;;;;-0.91;81.49;95110.31;1704181;83;21353;-80
2021/01/14 04:48:25;;;;;;;5.03;4.40;;;;;;;-0.88;81.57;95115.13;1709549;83;21288;-79
2021/01/14 04:50:51;;;;;;;5.83;5.33;;;;;;;-0.87;81.55;95115.93;1699872;83;21396;-80
2021/01/14 04:53:20;;;;;;;5.40;4.85;;;;;;;-0.91;81.53;95114.14;1700197;83;21308;-80
2021/01/14 04:55:48;;;;;;;4.78;4.37;;;;;;;-0.92;81.56;95111.27;1696288;83;21140;-80
2021/01/14 04:58:16;;;;;;;5.60;4.30;;;;;;;-0.95;81.63;95114.10;1703573;83;21114;-79
2021/01/14 05:00:51;;;;;;;5.42;4.58;;;;;;;-0.96;81.70;95115.05;1697486;83;21798;-80
2021/01/14 05:03:27;;;;;;;5.17;4.72;;;;;;;-1.01;81.73;95115.45;1757006;80;21134;-79
2021/01/14 05:05:55;;;;;;;6.33;5.72;;;;;;;-1.02;81.73;95120.70;1760097;80;21094;-80
2021/01/14 05:08:32;;;;;;;12.47;11.35;;;;;;;-1.00;81.96;95120.08;1754328;80;21121;-80
2021/01/14 05:10:59;;;;;;;19.23;17.55;;;;;;;-1.01;81.86;95126.12;1758920;80;21344;-80
2021/01/14 05:13:29;;;;;;;18.87;17.27;;;;;;;-1.03;82.02;95130.56;1755888;80;21105;-80
2021/01/14 05:15:57;;;;;;;7.67;6.87;;;;;;;-1.07;81.84;95135.63;1764494;80;21249;-80
2021/01/14 05:18:23;;;;;;;7.47;6.78;;;;;;;-1.08;81.91;95132.75;1752162;80;21081;-79
2021/01/14 05:20:50;;;;;;;7.62;6.80;;;;;;;-1.07;81.95;95139.45;1735314;80;21260;-78
2021/01/14 05:23:19;;;;;;;14.60;12.25;;;;;;;-1.09;82.05;95151.53;1759906;80;21102;-78
2021/01/14 05:25:55;;;;;;;45.98;35.03;;;;;;;-1.14;82.07;95146.86;1719296;82;21245;-78
2021/01/14 05:28:15;;;;;;;25.02;21.55;;;;;;;-1.14;82.09;95152.41;1754961;80;21430;-78
2021/01/14 05:30:42;;;;;;;22.15;19.20;;;;;;;-1.17;82.21;95157.78;1758226;80;21137;-78
2021/01/14 05:33:19;;;;;;;32.53;28.47;;;;;;;-1.19;82.13;95167.33;1760763;80;21134;-78
2021/01/14 05:35:53;;;;;;;41.13;32.05;;;;;;;-1.17;82.18;95164.96;1761031;80;21091;-78
2021/01/14 05:38:31;;;;;;;60.12;45.12;;;;;;;-1.14;82.19;95160.05;1759455;80;21156;-78
2021/01/14 05:41:19;;;;;;;34.27;26.75;;;;;;;-1.13;82.22;95163.77;1761313;80;21264;-78
2021/01/14 05:43:57;;;;;;;22.07;19.67;;;;;;;-1.15;82.14;95158.45;1758743;80;21153;-78
2021/01/14 05:46:30;;;;;;;15.55;12.25;;;;;;;-1.12;82.21;95165.84;1759969;80;21122;-78
2021/01/14 05:48:58;;;;;;;17.27;12.63;;;;;;;-1.11;82.19;95173.81;1757103;80;21129;-78
2021/01/14 05:51:30;;;;;;;18.35;12.85;;;;;;;-1.13;82.14;95175.70;1759987;80;21369;-78
2021/01/14 05:54:06;;;;;;;16.60;11.83;;;;;;;-1.14;82.23;95171.52;1756301;80;21082;-78
2021/01/14 05:56:44;;;;;;;17.37;12.03;;;;;;;-1.11;82.26;95178.91;1758829;80;21750;-78
2021/01/14 05:59:12;;;;;;;13.85;11.10;;;;;;;-1.13;82.19;95184.63;1755827;80;21126;-77
2021/01/14 06:01:59;;;;;;;17.52;11.43;;;;;;;-1.13;82.21;95180.80;1759035;80;21995;-78
2021/01/14 06:04:32;;;;;;;15.58;10.20;;;;;;;-1.13;82.26;95181.61;1755764;80;21108;-79
2021/01/14 06:07:02;;;;;;;16.52;12.00;;;;;;;-1.08;82.28;95187.55;1761198;80;21453;-78
2021/01/14 06:09:28;;;;;;;19.80;13.25;;;;;;;-1.09;82.25;95188.50;1756787;80;21122;-78
2021/01/14 06:12:09;;;;;;;14.95;12.53;;;;;;;-1.04;82.33;95187.60;1729999;80;21470;-77
2021/01/14 06:14:35;;;;;;;14.20;10.68;;;;;;;-1.04;82.27;95194.78;1761694;80;21519;-78
2021/01/14 06:17:11;;;;;;;15.10;12.37;;;;;;;-1.01;82.20;95194.48;1759489;80;21120;-78
2021/01/14 06:19:38;;;;;;;13.43;10.00;;;;;;;-1.06;82.16;95196.66;1763915;80;21153;-77
2021/01/14 06:22:04;;;;;;;13.00;9.53;;;;;;;-1.14;82.08;95204.66;1756897;80;21086;-77
2021/01/14 06:24:37;;;;;;;14.65;9.18;;;;;;;-1.19;82.26;95211.92;1758250;80;21846;-77
2021/01/14 06:27:10;;;;;;;11.85;8.58;;;;;;;-1.30;82.03;95213.72;1757172;80;21243;-77
2021/01/14 06:29:38;;;;;;;;;;;;;;;-1.38;82.02;95212.78;1772369;80;21577;-77
2021/01/14 06:32:10;;;;;;;12.35;8.68;;;;;;;-1.41;82.18;95219.42;1760165;80;20173;-77
2021/01/14 06:34:40;;;;;;;18.57;10.28;;;;;;;-1.44;82.22;95222.25;1758711;80;21126;-77
2021/01/14 06:37:15;;;;;;;14.55;10.48;;;;;;;-1.49;82.32;95229.01;1751787;80;21110;-77
2021/01/14 06:39:43;;;;;;;13.10;8.88;;;;;;;-1.49;82.38;95228.20;1764840;80;21592;-77
2021/01/14 06:42:22;;;;;;;12.40;9.85;;;;;;;-1.49;82.43;95235.84;1759398;80;21136;-78
2021/01/14 06:44:52;;;;;;;14.25;9.93;;;;;;;-1.51;82.37;95239.81;1762561;80;21243;-77
2021/01/14 06:47:39;;;;;;;14.68;10.38;;;;;;;-1.48;82.46;95252.73;1761071;80;21119;-77
2021/01/14 06:50:20;;;;;;;12.28;9.60;;;;;;;-1.46;82.41;95259.34;1761635;80;21110;-77
2021/01/14 06:53:10;;;;;;;14.15;11.18;;;;;;;-1.48;82.29;95259.91;1750104;80;21149;-78
2021/01/14 06:55:37;;;;;;;16.40;11.03;;;;;;;-1.48;82.37;95270.11;1761097;80;21170;-77
2021/01/14 06:58:12;;;;;;;14.83;10.63;;;;;;;-1.51;82.33;95261.47;1757005;80;21243;-77
2021/01/14 07:00:45;;;;;;;13.03;10.08;;;;;;;-1.53;82.38;95268.44;1760186;80;21140;-78
2021/01/14 07:03:22;;;;;;;39.80;26.50;;;;;;;-1.54;82.55;95275.75;1769479;80;21228;-79
2021/01/14 07:05:58;;;;;;;15.60;9.90;;;;;;;-1.54;82.47;95282.92;1764109;80;21096;-80
2021/01/14 07:08:40;;;;;;;15.15;9.90;;;;;;;-1.56;82.44;95285.27;1757888;80;21122;-79
2021/01/14 07:11:14;;;;;;;19.20;15.20;;;;;;;-1.58;82.53;95290.97;1766636;80;21331;-79
2021/01/14 07:13:51;;;;;;;18.00;13.48;;;;;;;-1.57;82.54;95295.94;1762242;80;21130;-79
2021/01/14 07:16:22;;;;;;;18.98;17.02;;;;;;;-1.55;82.50;95296.60;1763964;80;21101;-79
2021/01/14 07:18:49;;;;;;;17.20;14.13;;;;;;;-1.51;82.56;95300.48;1761497;80;21437;-79
2021/01/14 07:21:27;;;;;;;16.93;12.37;;;;;;;-1.49;82.51;95309.27;1761637;80;21444;-79
2021/01/14 07:23:58;;;;;;;16.75;13.10;;;;;;;-1.47;82.61;95318.05;1764608;80;21152;-79
2021/01/14 07:26:24;;;;;;;19.12;12.65;;;;;;;-1.46;82.50;95324.30;1722143;80;21129;-79
2021/01/14 07:28:51;;;;;;;19.95;13.60;;;;;;;-1.46;82.58;95318.41;1727860;80;21146;-79
2021/01/14 07:31:25;;;;;;;20.02;13.88;;;;;;;-1.46;82.57;95329.40;1762553;80;21118;-79
2021/01/14 07:33:54;;;;;;;26.57;17.80;;;;;;;-1.44;82.54;95333.09;1765405;80;21242;-78
2021/01/14 07:36:25;;;;;;;20.05;13.55;;;;;;;-1.41;82.57;95337.44;1767010;80;21083;-79
2021/01/14 07:38:54;;;;;;;19.85;14.43;;;;;;;-1.40;82.60;95339.05;1760261;80;21135;-79
2021/01/14 07:41:21;;;;;;;22.60;15.13;;;;;;;-1.41;82.46;95350.18;1765651;80;21411;-79
2021/01/14 07:43:48;;;;;;;24.63;16.35;;;;;;;-1.44;82.43;95342.81;1768514;80;22174;-79
2021/01/14 07:46:23;;;;;;;25.32;16.55;;;;;;;-1.42;82.58;95357.48;1765547;80;21149;-80
2021/01/14 07:48:53;;;;;;;20.92;16.05;;;;;;;-1.39;82.53;95357.69;1764122;80;21333;-79
2021/01/14 07:51:20;;;;;;;22.93;17.57;;;;;;;-1.30;82.65;95364.08;1729034;80;21160;-79
2021/01/14 07:54:08;;;;;;;24.00;16.82;;;;;;;-1.30;82.46;95362.80;1771028;80;21118;-79
2021/01/14 07:56:52;;;;;;;24.35;17.40;;;;;;;-1.30;82.39;95364.08;1766662;80;21155;-78
2021/01/14 07:59:29;;;;;;;21.60;15.23;;;;;;;-1.26;82.44;95365.88;1772297;80;21106;-77
2021/01/14 08:02:08;;;;;;;23.75;16.37;;;;;;;-1.19;82.43;95375.06;1782621;80;21119;-77
2021/01/14 08:04:48;;;;;;;27.00;17.30;;;;;;;-1.26;82.25;95378.16;1763955;80;21140;-77
2021/01/14 08:07:25;;;;;;;24.85;17.50;;;;;;;-1.22;82.34;95383.31;1757591;80;21113;-78
2021/01/14 08:09:52;;;;;;;29.57;18.77;;;;;;;-1.20;82.36;95385.72;1762430;80;21114;-77
2021/01/14 08:12:22;;;;;;;53.48;28.67;;;;;;;-1.16;82.28;95393.91;1748544;80;21250;-77
2021/01/14 08:14:48;;;;;;;31.75;22.00;;;;;;;-1.15;82.29;95392.49;1767334;80;21221;-78
2021/01/14 08:17:26;;;;;;;28.12;21.35;;;;;;;-1.14;82.23;95391.58;1770875;80;21281;-80
2021/01/14 08:19:53;;;;;;;26.80;19.50;;;;;;;-1.16;82.16;95398.53;1761903;80;21284;-80
2021/01/14 08:22:19;;;;;;;24.40;17.80;;;;;;;-1.16;82.19;95405.37;1729003;81;21428;-80
2021/01/14 08:24:50;;;;;;;26.40;17.32;;;;;;;-1.17;82.15;95407.12;1759023;80;21114;-81
2021/01/14 08:27:36;;;;;;;20.85;15.88;;;;;;;-1.16;82.18;95415.09;1754321;80;21102;-80
2021/01/14 08:30:16;;;;;;;25.20;16.07;;;;;;;-1.18;82.30;95414.43;1756047;80;21107;-79
2021/01/14 08:32:49;;;;;;;26.00;16.73;;;;;;;-1.22;82.19;95436.84;1752529;80;21126;-79
2021/01/14 08:35:20;;;;;;;22.05;15.98;;;;;;;-1.23;82.15;95425.03;1754135;80;21126;-79
2021/01/14 08:38:05;;;;;;;25.02;17.52;;;;;;;-1.21;82.27;95432.08;1766219;81;21504;-79
2021/01/14 08:40:35;;;;;;;23.32;17.02;;;;;;;-1.21;82.22;95438.45;1748182;81;21111;-78
2021/01/14 08:43:16;;;;;;;20.82;14.90;;;;;;;-1.16;82.25;95447.43;1757707;80;21225;-79
2021/01/14 08:45:55;;;;;;;21.33;13.00;;;;;;;-1.18;82.13;95448.84;1764606;80;21253;-78
2021/01/14 08:48:30;;;;;;;19.70;13.55;;;;;;;-1.21;82.23;95460.58;1774516;80;21244;-78
2021/01/14 08:51:01;;;;;;;20.82;14.68;;;;;;;-1.23;82.09;95463.27;1756681;80;21129;-79
2021/01/14 08:53:31;;;;;;;26.20;17.12;;;;;;;-1.23;81.89;95463.73;1754501;81;21348;-79
2021/01/14 08:56:05;;;;;;;25.15;17.25;;;;;;;-1.22;82.05;95471.25;1753296;80;21219;-79
2021/01/14 08:58:38;;;;;;;22.90;15.72;;;;;;;-1.25;81.92;95474.06;1772995;80;21107;-79
2021/01/14 09:01:20;;;;;;;23.98;16.42;;;;;;;-1.19;82.11;95473.20;1767071;80;21117;-79
2021/01/14 09:03:47;;;;;;;19.33;13.97;;;;;;;-1.16;82.07;95483.13;1775738;80;21321;-79
2021/01/14 09:06:14;;;;;;;26.07;16.40;;;;;;;-1.13;82.02;95486.23;1771285;80;21119;-79
2021/01/14 09:08:41;;;;;;;22.52;17.67;;;;;;;-1.07;82.03;95492.55;1775444;80;21448;-79
2021/01/14 09:11:07;;;;;;;23.10;14.68;;;;;;;-1.02;81.95;95497.57;1762474;80;21150;-79
2021/01/14 09:13:33;;;;;;;21.45;16.10;;;;;;;-0.99;81.76;95501.12;1765797;80;21227;-79
2021/01/14 09:16:10;;;;;;;22.00;14.38;;;;;;;-0.94;81.76;95504.11;1728078;81;21153;-78
2021/01/14 09:18:40;;;;;;;24.52;17.27;;;;;;;-0.89;81.56;95505.44;1769691;80;21123;-78
2021/01/14 09:21:06;;;;;;;25.27;16.40;;;;;;;-0.93;81.29;95517.19;1769138;80;21947;-78
2021/01/14 09:23:34;;;;;;;21.77;14.07;;;;;;;-0.91;81.51;95514.03;1787129;80;21260;-79
2021/01/14 09:26:04;;;;;;;23.02;14.63;;;;;;;-0.89;81.16;95519.47;1720705;82;21478;-79
2021/01/14 09:28:32;;;;;;;18.15;12.55;;;;;;;-0.95;81.10;95522.09;1757480;80;21162;-79
2021/01/14 09:31:06;;;;;;;20.20;13.93;;;;;;;-0.93;81.22;95513.84;1768307;80;21272;-78
2021/01/14 09:33:37;;;;;;;18.62;12.58;;;;;;;-0.93;81.08;95524.84;1756969;80;21115;-77
2021/01/14 09:36:18;;;;;;;20.62;14.68;;;;;;;-0.92;81.16;95530.75;1756938;80;21149;-77
2021/01/14 09:38:58;;;;;;;17.42;14.00;;;;;;;-0.95;80.93;95537.39;1768897;80;21139;-77
2021/01/14 09:41:36;;;;;;;19.35;15.28;;;;;;;-0.91;81.17;95540.01;1775730;80;21126;-78
2021/01/14 09:44:08;;;;;;;22.65;16.12;;;;;;;-0.84;81.17;95533.42;1755140;80;21123;-79
2021/01/14 09:46:44;;;;;;;24.60;15.93;;;;;;;-0.85;80.90;95539.94;1768654;80;21155;-79
2021/01/14 09:49:19;;;;;;;26.52;16.65;;;;;;;-0.87;80.83;95545.17;1775758;80;21118;-80
2021/01/14 09:51:46;;;;;;;39.58;21.12;;;;;;;-0.87;80.90;95551.55;1728887;81;21110;-80
2021/01/14 09:54:12;;;;;;;23.30;17.25;;;;;;;-0.82;81.06;95554.97;1737422;82;21138;-78
2021/01/14 09:56:47;;;;;;;25.85;16.67;;;;;;;-0.86;80.91;95558.73;1777174;80;21245;-80
2021/01/14 09:59:32;;;;;;;26.17;16.90;;;;;;;-0.85;80.94;95561.15;1768580;80;21359;-78
2021/01/14 10:02:17;;;;;;;26.52;17.73;;;;;;;-0.81;80.82;95562.99;1800178;79;23064;-79
2021/01/14 10:04:45;;;;;;;37.40;23.05;;;;;;;-0.86;80.85;95565.11;1772501;79;21132;-77
2021/01/14 10:07:14;;;;;;;24.40;17.23;;;;;;;-0.83;80.91;95564.84;1732589;80;21121;-78
2021/01/14 10:09:40;;;;;;;28.55;19.07;;;;;;;-0.82;80.80;95568.53;1761559;80;21125;-79
2021/01/14 10:12:07;;;;;;;25.90;18.37;;;;;;;-0.80;80.80;95576.88;1773519;79;21082;-79
2021/01/14 10:14:34;;;;;;;23.60;15.70;;;;;;;-0.77;80.83;95569.44;1736092;81;21239;-79
2021/01/14 10:17:14;;;;;;;19.45;14.28;;;;;;;-0.71;80.45;95567.63;1763858;80;21438;-79
2021/01/14 10:19:46;;;;;;;20.68;14.58;;;;;;;-0.70;80.44;95567.95;1783888;80;21114;-79
2021/01/14 10:22:11;;;;;;;19.17;14.47;;;;;;;-0.63;80.41;95567.31;1726093;83;21501;-78
2021/01/14 10:24:37;;;;;;;19.55;14.28;;;;;;;-0.56;80.28;95568.84;1716115;81;21117;-79
2021/01/14 10:27:16;;;;;;;19.17;14.33;;;;;;;-0.52;80.17;95567.63;1735916;82;21178;-79
2021/01/14 10:29:43;;;;;;;27.37;18.23;;;;;;;-0.47;80.18;95571.89;1738706;81;21259;-79
2021/01/14 10:32:15;;;;;;;31.82;20.60;;;;;;;-0.41;80.17;95575.17;1750254;81;21103;-79
2021/01/14 10:34:50;;;;;;;30.55;21.85;;;;;;;-0.41;79.97;95575.17;1709673;81;21347;-79
2021/01/14 10:37:22;;;;;;;26.55;18.48;;;;;;;-0.41;79.90;95570.06;1743837;81;21119;-79
2021/01/14 10:39:55;;;;;;;23.40;17.37;;;;;;;-0.39;79.83;95575.84;1732591;81;21471;-78
2021/01/14 10:42:35;;;;;;;28.92;21.73;;;;;;;-0.42;79.69;95576.58;1705106;83;21114;-79
2021/01/14 10:45:08;;;;;;;28.67;22.00;;;;;;;-0.45;79.82;95589.14;1724303;81;21179;-80
2021/01/14 10:47:35;;;;;;;39.90;29.40;;;;;;;-0.35;80.08;95589.94;1722638;83;21134;-79
2021/01/14 10:50:25;;;;;;;32.38;25.00;;;;;;;-0.26;80.11;95597.28;1719450;83;21268;-79
2021/01/14 10:53:05;;;;;;;31.77;22.55;;;;;;;-0.22;80.00;95594.78;1717447;82;21118;-79
2021/01/14 10:55:32;;;;;;;37.53;26.60;;;;;;;-0.20;79.96;95592.09;1708468;82;21331;-79
2021/01/14 10:57:59;;;;;;;35.95;23.45;;;;;;;-0.15;79.94;95601.45;1725788;82;21095;-79
2021/01/14 11:00:38;;;;;;;38.33;25.40;;;;;;;-0.14;79.77;95592.85;1718376;82;21199;-79
2021/01/14 11:03:14;;;;;;;38.85;26.65;;;;;;;-0.08;79.71;95592.30;1713995;82;21337;-79
2021/01/14 11:05:45;;;;;;;35.28;25.02;;;;;;;-0.10;79.61;95594.98;1750146;80;21154;-79
2021/01/14 11:08:15;;;;;;;40.52;26.45;;;;;;;-0.15;79.58;95593.80;1699126;82;21147;-78
2021/01/14 11:10:47;;;;;;;34.58;24.55;;;;;;;-0.19;79.70;95598.34;1707515;83;21427;-79
2021/01/14 11:13:20;;;;;;;;;;;;;;;-0.20;79.67;95601.03;1752152;80;21250;-79
2021/01/14 11:15:46;;;;;;;39.18;24.77;;;;;;;-0.24;79.64;95604.33;1741211;81;20158;-79
2021/01/14 11:18:12;;;;;;;39.55;25.17;;;;;;;-0.28;79.67;95604.73;1753379;80;21439;-79
2021/01/14 11:20:39;;;;;;;38.73;24.05;;;;;;;-0.36;79.72;95607.47;1748208;80;21272;-79
2021/01/14 11:23:05;;;;;;;38.83;24.40;;;;;;;-0.40;79.77;95608.69;1766453;80;21091;-80
2021/01/14 11:25:31;;;;;;;41.35;25.88;;;;;;;-0.48;79.69;95617.96;1754169;80;21146;-79
2021/01/14 11:27:58;;;;;;;39.30;26.23;;;;;;;-0.49;79.95;95620.98;1710335;83;21522;-79
2021/01/14 11:30:24;;;;;;;39.95;26.35;;;;;;;-0.44;79.98;95618.83;1758595;80;21186;-78
2021/01/14 11:32:50;;;;;;;44.58;27.93;;;;;;;-0.44;80.05;95618.83;1762631;80;21114;-79
2021/01/14 11:35:17;;;;;;;38.95;26.50;;;;;;;-0.45;80.03;95627.42;1760587;80;21142;-79
2021/01/14 11:37:43;;;;;;;48.58;29.25;;;;;;;-0.44;80.08;95628.23;1776356;80;21115;-80
2021/01/14 11:40:10;;;;;;;47.35;29.12;;;;;;;-0.47;80.03;95635.69;1734717;80;21420;-79
2021/01/14 11:42:36;;;;;;;52.70;32.98;;;;;;;-0.52;79.99;95633.17;1751187;80;21090;-79
2021/01/14 11:45:03;;;;;;;40.12;28.23;;;;;;;-0.52;80.27;95637.81;1768988;80;21292;-79